createdAt,value
2023-02-03T00:02:22.691Z,1.03
2023-02-03T00:04:54.559Z,1.03
2023-02-03T00:07:26.105Z,1.08
2023-02-03T00:09:58.278Z,1.13
2023-02-03T00:12:29.829Z,1.13
2023-02-03T00:15:01.660Z,1.16
2023-02-03T00:17:33.229Z,1.05
2023-02-03T00:20:06.335Z,1.05
2023-02-03T00:22:37.847Z,1.01
2023-02-03T00:25:09.709Z,0.92
2023-02-03T00:27:41.367Z,1.00
2023-02-03T00:30:13.456Z,1.00
2023-02-03T00:32:44.983Z,0.93
2023-02-03T00:35:16.679Z,-0.48
2023-02-03T00:37:48.159Z,1.03
2023-02-03T00:40:19.689Z,1.04
2023-02-03T00:42:51.161Z,1.12
2023-02-03T00:45:23.196Z,1.13
2023-02-03T00:47:54.692Z,1.14
2023-02-03T00:50:27.048Z,1.15
2023-02-03T00:52:58.740Z,1.19
2023-02-03T00:55:30.653Z,1.20
2023-02-03T00:58:02.134Z,1.25
2023-02-03T01:00:33.985Z,1.35
2023-02-03T01:03:05.507Z,1.42
2023-02-03T01:05:37.331Z,1.45
2023-02-03T01:08:08.808Z,1.46
2023-02-03T01:10:40.668Z,1.49
2023-02-03T01:13:12.274Z,1.58
2023-02-03T01:15:44.116Z,1.58
2023-02-03T01:18:15.623Z,1.65
2023-02-03T01:20:47.434Z,1.66
2023-02-03T01:23:18.936Z,1.69
2023-02-03T01:25:50.657Z,1.68
2023-02-03T01:28:22.168Z,1.71
2023-02-03T01:30:54.187Z,1.71
2023-02-03T01:33:25.693Z,1.74
2023-02-03T01:35:57.675Z,1.79
2023-02-03T01:38:29.173Z,1.71
2023-02-03T01:41:01.175Z,1.73
2023-02-03T01:43:32.753Z,1.73
2023-02-03T01:46:04.829Z,1.76
2023-02-03T01:48:36.411Z,1.75
2023-02-03T01:51:08.224Z,1.77
2023-02-03T01:53:40.177Z,1.79
2023-02-03T01:56:12.211Z,1.72
2023-02-03T01:58:43.772Z,1.78
2023-02-03T02:01:15.969Z,1.75
2023-02-03T02:03:48.537Z,1.75
2023-02-03T02:06:20.195Z,1.73
2023-02-03T02:08:51.696Z,1.77
2023-02-03T02:11:23.605Z,1.82
2023-02-03T02:13:55.135Z,1.85
2023-02-03T02:16:26.973Z,1.82
2023-02-03T02:18:58.493Z,1.79
2023-02-03T02:21:30.357Z,1.85
2023-02-03T02:24:01.852Z,1.81
2023-02-03T02:26:33.747Z,1.83
2023-02-03T02:29:05.256Z,1.72
2023-02-03T02:31:37.195Z,1.75
2023-02-03T02:34:08.737Z,1.73
2023-02-03T02:36:40.592Z,1.70
2023-02-03T02:39:12.079Z,1.67
2023-02-03T02:41:44.054Z,1.67
2023-02-03T02:44:15.609Z,1.62
2023-02-03T02:46:47.441Z,1.64
2023-02-03T02:49:18.912Z,1.59
2023-02-03T02:51:50.647Z,1.51
2023-02-03T02:54:22.238Z,1.46
2023-02-03T02:56:54.215Z,1.51
2023-02-03T02:59:26.840Z,1.48
2023-02-03T03:01:58.782Z,1.52
2023-02-03T03:04:30.630Z,1.54
2023-02-03T03:07:03.141Z,1.52
2023-02-03T03:09:36.204Z,1.61
2023-02-03T03:12:08.075Z,1.61
2023-02-03T03:14:39.600Z,1.58
2023-02-03T03:17:11.476Z,1.56
2023-02-03T03:19:43.019Z,1.54
2023-02-03T03:22:14.876Z,1.57
2023-02-03T03:24:46.392Z,1.56
2023-02-03T03:27:18.075Z,1.64
2023-02-03T03:29:49.724Z,1.60
2023-02-03T03:32:21.405Z,1.62
2023-02-03T03:34:52.951Z,1.60
2023-02-03T03:37:24.735Z,1.61
2023-02-03T03:39:56.248Z,1.66
2023-02-03T03:42:30.127Z,1.69
2023-02-03T03:45:02.858Z,1.68
2023-02-03T03:47:34.386Z,1.72
2023-02-03T03:50:05.947Z,1.74
2023-02-03T03:52:37.631Z,1.77
2023-02-03T03:55:09.136Z,1.77
2023-02-03T03:57:41.051Z,1.79
2023-02-03T04:00:12.566Z,1.82
2023-02-03T04:02:44.610Z,1.87
2023-02-03T04:05:16.207Z,1.93
2023-02-03T04:07:48.182Z,1.94
2023-02-03T04:10:19.699Z,1.95
2023-02-03T04:12:51.359Z,2.05
2023-02-03T04:15:22.913Z,2.10
2023-02-03T04:17:55.259Z,2.14
2023-02-03T04:20:27.400Z,2.16
2023-02-03T04:22:59.143Z,2.23
2023-02-03T04:25:31.042Z,2.28
2023-02-03T04:28:02.641Z,2.38
2023-02-03T04:30:34.784Z,2.47
2023-02-03T04:33:06.343Z,2.57
2023-02-03T04:35:38.278Z,2.67
2023-02-03T04:38:09.799Z,2.75
2023-02-03T04:40:41.731Z,2.89
2023-02-03T04:43:14.256Z,2.94
2023-02-03T04:45:46.358Z,3.03
2023-02-03T04:48:17.957Z,3.13
2023-02-03T04:50:49.893Z,3.18
2023-02-03T04:53:21.397Z,3.22
2023-02-03T04:55:53.316Z,3.31
2023-02-03T04:58:26.325Z,3.44
2023-02-03T05:00:58.482Z,3.48
2023-02-03T05:03:30.173Z,3.58
2023-02-03T05:06:03.529Z,3.62
2023-02-03T05:08:35.082Z,3.71
2023-02-03T05:11:06.820Z,3.79
2023-02-03T05:13:38.441Z,3.85
2023-02-03T05:16:10.352Z,3.91
2023-02-03T05:18:41.892Z,3.95
2023-02-03T05:21:13.731Z,3.97
2023-02-03T05:23:45.271Z,3.99
2023-02-03T05:26:17.154Z,4.06
2023-02-03T05:28:48.657Z,4.16
2023-02-03T05:31:20.444Z,4.20
2023-02-03T05:33:52.055Z,4.28
2023-02-03T05:36:23.979Z,4.36
2023-02-03T05:38:55.530Z,4.50
2023-02-03T05:41:45.950Z,4.56
2023-02-03T05:44:17.463Z,4.65
2023-02-03T05:46:49.508Z,4.70
2023-02-03T05:49:23.148Z,4.84
2023-02-03T05:51:54.738Z,4.93
2023-02-03T05:54:26.273Z,4.99
2023-02-03T05:56:58.173Z,5.05
2023-02-03T05:59:29.678Z,5.14
2023-02-03T06:02:01.251Z,5.20
2023-02-03T06:04:32.877Z,5.28
2023-02-03T06:07:04.764Z,5.35
2023-02-03T06:09:36.274Z,5.41
2023-02-03T06:12:08.128Z,5.43
2023-02-03T06:14:39.865Z,5.49
2023-02-03T06:17:11.765Z,5.54
2023-02-03T06:19:43.270Z,5.55
2023-02-03T06:22:15.105Z,5.63
2023-02-03T06:24:48.083Z,5.70
2023-02-03T06:27:19.885Z,5.78
2023-02-03T06:29:51.465Z,5.77
2023-02-03T06:32:23.353Z,5.85
2023-02-03T06:34:54.842Z,5.85
2023-02-03T06:37:26.638Z,5.87
2023-02-03T06:39:58.155Z,5.91
2023-02-03T06:42:29.752Z,5.97
2023-02-03T06:45:01.263Z,6.02
2023-02-03T06:47:33.159Z,6.05
2023-02-03T06:50:04.674Z,6.11
2023-02-03T06:52:36.484Z,6.11
2023-02-03T06:55:07.988Z,6.16
2023-02-03T06:57:39.862Z,6.16
2023-02-03T07:00:14.067Z,6.17
2023-02-03T07:02:46.839Z,6.16
2023-02-03T07:05:18.434Z,6.16
2023-02-03T07:07:50.155Z,6.19
2023-02-03T07:10:21.688Z,6.22
2023-02-03T07:12:53.536Z,6.19
2023-02-03T07:15:25.032Z,6.23
2023-02-03T07:17:57.099Z,6.23
2023-02-03T07:20:29.458Z,6.30
2023-02-03T07:23:01.632Z,6.27
2023-02-03T07:25:33.159Z,6.31
2023-02-03T07:28:05.178Z,6.35
2023-02-03T07:30:36.797Z,6.33
2023-02-03T07:33:08.795Z,6.39
2023-02-03T07:35:40.310Z,6.38
2023-02-03T07:38:12.574Z,6.43
2023-02-03T07:40:44.087Z,6.48
2023-02-03T07:43:16.005Z,6.48
2023-02-03T07:45:47.612Z,6.51
2023-02-03T07:48:19.549Z,6.47
2023-02-03T07:50:52.794Z,6.47
2023-02-03T07:53:27.901Z,6.50
2023-02-03T07:55:59.479Z,6.51
2023-02-03T07:58:31.479Z,6.47
2023-02-03T08:01:03.030Z,6.52
2023-02-03T08:03:35.152Z,6.54
2023-02-03T08:06:06.690Z,6.49
2023-02-03T08:08:38.605Z,6.50
2023-02-03T08:11:10.134Z,6.54
2023-02-03T08:13:41.982Z,6.54
2023-02-03T08:16:13.538Z,6.53
2023-02-03T08:18:45.658Z,6.54
2023-02-03T08:21:17.178Z,6.58
2023-02-03T08:23:48.919Z,6.63
2023-02-03T08:26:20.483Z,6.69
2023-02-03T08:28:52.402Z,6.62
2023-02-03T08:31:24.176Z,6.64
2023-02-03T08:33:55.953Z,6.63
2023-02-03T08:36:27.512Z,6.68
2023-02-03T08:38:59.416Z,6.70
2023-02-03T08:41:30.977Z,6.75
2023-02-03T08:44:02.897Z,6.77
2023-02-03T08:46:35.780Z,6.78
2023-02-03T08:49:07.721Z,6.71
2023-02-03T08:51:39.372Z,6.73
2023-02-03T08:54:11.332Z,6.80
2023-02-03T08:59:16.039Z,6.85
2023-02-03T09:01:48.603Z,6.82
2023-02-03T09:04:24.747Z,6.84
2023-02-03T09:06:56.793Z,6.87
2023-02-03T09:09:29.209Z,6.87
2023-02-03T09:12:02.654Z,6.84
2023-02-03T09:14:34.230Z,6.81
2023-02-03T09:17:06.300Z,6.80
2023-02-03T09:19:38.148Z,6.81
2023-02-03T09:22:09.908Z,6.79
2023-02-03T09:24:41.642Z,6.84
2023-02-03T09:27:13.506Z,6.86
2023-02-03T09:29:45.107Z,6.92
2023-02-03T09:32:17.082Z,6.86
2023-02-03T09:34:48.663Z,6.97
2023-02-03T09:37:20.488Z,6.94
2023-02-03T09:39:53.598Z,6.96
2023-02-03T09:42:26.114Z,6.98
2023-02-03T09:44:57.639Z,7.01
2023-02-03T09:47:29.559Z,7.00
2023-02-03T09:50:01.182Z,7.06
2023-02-03T09:52:32.917Z,7.09
2023-02-03T09:55:04.479Z,7.08
2023-02-03T09:57:36.313Z,7.15
2023-02-03T10:00:07.878Z,7.16
2023-02-03T10:02:40.089Z,7.24
2023-02-03T10:05:12.381Z,7.22
2023-02-03T10:07:44.072Z,7.31
2023-02-03T10:10:15.612Z,7.35
2023-02-03T10:12:47.368Z,7.35
2023-02-03T10:15:18.991Z,7.37
2023-02-03T10:17:50.698Z,7.51
2023-02-03T10:20:22.361Z,7.46
2023-02-03T10:22:53.996Z,7.48
2023-02-03T10:25:25.541Z,7.60
2023-02-03T10:27:59.054Z,7.59
2023-02-03T10:30:31.136Z,7.56
2023-02-03T10:33:03.230Z,7.49
2023-02-03T10:35:34.777Z,7.58
2023-02-03T10:38:06.669Z,7.63
2023-02-03T10:40:38.371Z,7.67
2023-02-03T10:43:29.344Z,7.69
2023-02-03T10:46:00.882Z,7.72
2023-02-03T10:48:32.857Z,7.68
2023-02-03T10:51:04.474Z,7.68
2023-02-03T10:53:36.338Z,7.67
2023-02-03T10:56:07.893Z,7.64
2023-02-03T10:58:39.626Z,7.45
2023-02-03T11:01:11.446Z,6.47
2023-02-03T11:03:43.378Z,6.37
2023-02-03T11:06:14.997Z,6.49
2023-02-03T11:08:46.778Z,6.75
2023-02-03T11:11:18.298Z,6.83
2023-02-03T11:13:50.029Z,7.16
2023-02-03T11:16:21.688Z,7.19
2023-02-03T11:18:53.650Z,7.20
2023-02-03T11:21:25.170Z,7.20
2023-02-03T11:23:57.171Z,7.26
2023-02-03T11:26:28.719Z,7.29
2023-02-03T11:29:00.729Z,7.31
2023-02-03T11:31:32.408Z,7.25
2023-02-03T11:34:04.306Z,7.27
2023-02-03T11:36:35.889Z,7.25
2023-02-03T11:39:07.846Z,7.30
2023-02-03T11:41:39.475Z,7.27
2023-02-03T11:44:11.323Z,7.31
2023-02-03T11:46:43.052Z,7.25
2023-02-03T11:49:14.899Z,7.32
2023-02-03T11:51:46.485Z,7.31
2023-02-03T11:54:18.521Z,7.63
2023-02-03T11:56:50.042Z,7.46
2023-02-03T11:59:21.742Z,7.80
2023-02-03T12:01:53.321Z,7.96
2023-02-03T12:04:25.234Z,8.06
2023-02-03T12:06:56.768Z,8.21
2023-02-03T12:09:28.506Z,8.23
2023-02-03T12:12:00.043Z,8.25
2023-02-03T12:14:32.108Z,8.23
2023-02-03T12:17:03.663Z,8.63
2023-02-03T12:19:38.452Z,8.46
2023-02-03T12:22:09.984Z,8.64
2023-02-03T12:24:42.051Z,8.65
2023-02-03T12:27:13.950Z,8.78
2023-02-03T12:29:45.462Z,8.86
2023-02-03T12:32:17.426Z,8.82
2023-02-03T12:34:48.950Z,9.00
2023-02-03T12:37:20.884Z,8.89
2023-02-03T12:39:52.564Z,9.23
2023-02-03T12:42:24.637Z,9.25
2023-02-03T12:44:56.147Z,9.34
2023-02-03T12:47:28.589Z,9.51
2023-02-03T12:50:00.116Z,9.53
2023-02-03T12:52:32.229Z,9.28
2023-02-03T12:55:03.834Z,9.13
2023-02-03T12:57:35.893Z,8.89
2023-02-03T13:00:07.489Z,8.65
2023-02-03T13:02:39.326Z,8.42
2023-02-03T13:05:10.827Z,8.29
2023-02-03T13:07:42.699Z,8.02
2023-02-03T13:10:14.342Z,7.62
2023-02-03T13:12:46.181Z,7.33
2023-02-03T13:15:17.682Z,7.21
2023-02-03T13:17:49.565Z,6.97
2023-02-03T13:20:21.086Z,6.81
2023-02-03T13:22:53.279Z,6.46
2023-02-03T13:25:24.854Z,6.07
2023-02-03T13:27:58.260Z,5.78
2023-02-03T13:30:30.107Z,5.39
2023-02-03T13:33:02.121Z,5.28
2023-02-03T13:35:34.662Z,5.22
2023-02-03T13:38:06.661Z,5.31
2023-02-03T13:40:38.231Z,5.56
2023-02-03T13:43:10.061Z,5.72
2023-02-03T13:45:41.843Z,6.15
2023-02-03T13:48:13.795Z,6.41
2023-02-03T13:50:45.385Z,6.44
2023-02-03T13:53:17.425Z,6.58
2023-02-03T13:55:48.989Z,6.68
2023-02-03T13:58:20.760Z,6.84
2023-02-03T14:00:52.292Z,6.80
2023-02-03T14:03:23.858Z,6.88
2023-02-03T14:05:55.385Z,6.87
2023-02-03T14:08:27.602Z,6.94
2023-02-03T14:10:59.137Z,7.04
2023-02-03T14:13:30.899Z,6.96
2023-02-03T14:16:02.416Z,7.15
2023-02-03T14:18:34.495Z,7.15
2023-02-03T14:21:06.059Z,7.35
2023-02-03T14:23:37.976Z,7.33
2023-02-03T14:26:09.776Z,7.32
2023-02-03T14:28:41.815Z,7.45
2023-02-03T14:31:16.052Z,7.36
2023-02-03T14:33:48.117Z,7.47
2023-02-03T14:36:19.670Z,7.39
2023-02-03T14:38:51.375Z,7.31
2023-02-03T14:41:22.957Z,7.24
2023-02-03T14:43:54.860Z,7.25
2023-02-03T14:46:26.752Z,7.24
2023-02-03T14:48:58.664Z,7.46
2023-02-03T14:51:30.201Z,7.43
2023-02-03T14:54:02.008Z,7.41
2023-02-03T14:56:53.508Z,7.49
2023-02-03T14:59:25.753Z,7.29
2023-02-03T15:01:57.311Z,7.25
2023-02-03T15:04:29.383Z,7.15
2023-02-03T15:07:00.919Z,7.06
2023-02-03T15:09:32.924Z,7.06
2023-02-03T15:12:07.562Z,7.04
2023-02-03T15:14:39.330Z,6.97
2023-02-03T15:17:10.845Z,6.97
2023-02-03T15:19:42.693Z,6.93
2023-02-03T15:22:14.547Z,6.95
2023-02-03T15:24:46.036Z,6.93
2023-02-03T15:27:17.917Z,6.94
2023-02-03T15:29:49.486Z,6.85
2023-02-03T15:32:21.411Z,6.88
2023-02-03T15:34:53.075Z,6.80
2023-02-03T15:37:24.630Z,6.85
2023-02-03T15:39:56.789Z,6.80
2023-02-03T15:42:28.667Z,6.71
2023-02-03T15:45:00.191Z,6.65
2023-02-03T15:47:32.147Z,6.62
2023-02-03T15:50:03.726Z,6.59
2023-02-03T15:52:35.709Z,6.58
2023-02-03T15:55:07.262Z,5.44
2023-02-03T15:57:39.226Z,6.58
2023-02-03T16:00:10.752Z,6.59
2023-02-03T16:02:42.707Z,6.60
2023-02-03T16:05:14.255Z,6.57
2023-02-03T16:07:46.228Z,6.57
2023-02-03T16:10:17.779Z,6.55
2023-02-03T16:12:49.650Z,6.58
2023-02-03T16:15:21.153Z,6.54
2023-02-03T16:17:52.936Z,6.57
2023-02-03T16:20:24.512Z,6.55
2023-02-03T16:22:56.791Z,6.53
2023-02-03T16:25:28.612Z,6.59
2023-02-03T16:28:19.521Z,6.54
2023-02-03T16:31:10.084Z,6.55
2023-02-03T16:34:00.705Z,6.55
2023-02-03T16:36:50.934Z,6.54
2023-02-03T16:39:42.865Z,6.56
2023-02-03T16:42:34.773Z,6.49
2023-02-03T16:45:25.573Z,6.51
2023-02-03T16:48:16.411Z,6.57
2023-02-03T16:50:53.972Z,6.57
2023-02-03T16:53:26.099Z,6.56
2023-02-03T16:55:57.694Z,6.54
2023-02-03T16:58:29.587Z,6.61
2023-02-03T17:01:01.389Z,6.57
2023-02-03T17:03:33.526Z,6.56
2023-02-03T17:06:05.061Z,6.61
2023-02-03T17:08:36.924Z,6.64
2023-02-03T17:11:08.615Z,6.60
2023-02-03T17:13:40.646Z,6.57
2023-02-03T17:16:12.292Z,6.59
2023-02-03T17:18:44.257Z,6.62
2023-02-03T17:21:16.324Z,6.63
2023-02-03T17:23:48.213Z,6.69
2023-02-03T17:26:19.733Z,6.68
2023-02-03T17:28:51.489Z,6.68
2023-02-03T17:31:23.111Z,6.68
2023-02-03T17:33:55.329Z,6.70
2023-02-03T17:36:27.111Z,6.72
2023-02-03T17:55:38.187Z,6.56
2023-02-03T17:58:09.683Z,6.59
2023-02-03T18:00:41.566Z,6.61
2023-02-03T18:03:13.092Z,6.57
2023-02-03T18:05:44.957Z,6.56
2023-02-03T18:08:20.250Z,6.57
2023-02-03T18:10:52.325Z,6.62
2023-02-03T18:13:26.170Z,6.60
2023-02-03T18:15:58.122Z,6.64
2023-02-03T18:18:29.670Z,6.63
2023-02-03T18:21:01.619Z,6.60
2023-02-03T18:23:33.113Z,6.59
2023-02-03T18:26:04.997Z,6.63
2023-02-03T18:28:36.509Z,6.61
2023-02-03T18:31:08.400Z,6.62
2023-02-03T18:33:40.412Z,6.66
2023-02-03T18:36:12.833Z,6.64
2023-02-03T18:38:44.932Z,6.64
2023-02-03T18:41:16.432Z,6.71
2023-02-03T18:43:49.636Z,6.66
2023-02-03T18:46:21.182Z,6.65
2023-02-03T18:48:53.021Z,6.65
2023-02-03T18:51:24.624Z,6.61
2023-02-03T18:53:56.549Z,6.59
2023-02-03T18:56:28.095Z,6.62
2023-02-03T18:58:59.935Z,6.62
2023-02-03T19:01:31.586Z,6.55
2023-02-03T19:04:03.653Z,6.56
2023-02-03T19:06:35.768Z,6.54
2023-02-03T19:09:07.701Z,6.54
2023-02-03T19:11:39.234Z,6.62
2023-02-03T19:14:10.834Z,6.61
2023-02-03T19:16:42.441Z,6.61
2023-02-03T19:19:14.848Z,6.55
2023-02-03T19:21:46.462Z,6.56
2023-02-03T19:24:19.244Z,6.51
2023-02-03T19:26:50.767Z,6.50
2023-02-03T19:29:22.562Z,6.42
2023-02-03T19:31:54.223Z,6.34
2023-02-03T19:34:27.623Z,6.35
2023-02-03T19:37:00.000Z,6.31
2023-02-03T19:39:32.536Z,6.33
2023-02-03T19:42:04.052Z,6.30
2023-02-03T19:44:37.496Z,6.23
2023-02-03T19:47:09.093Z,6.26
2023-02-03T19:49:41.058Z,6.17
2023-02-03T19:52:12.676Z,6.08
2023-02-03T19:54:44.506Z,5.97
2023-02-03T19:57:16.054Z,6.02
2023-02-03T19:59:47.624Z,5.88
2023-02-03T20:02:20.118Z,5.91
2023-02-03T20:04:52.040Z,5.89
2023-02-03T20:07:25.350Z,5.86
2023-02-03T20:09:56.913Z,5.85
2023-02-03T20:12:28.533Z,5.81
2023-02-03T20:15:03.162Z,5.83
2023-02-03T20:17:34.682Z,5.85
2023-02-03T20:20:06.233Z,5.86
2023-02-03T20:22:37.717Z,5.87
2023-02-03T20:25:09.660Z,5.85
2023-02-03T20:27:41.619Z,5.84
2023-02-03T20:30:13.192Z,5.83
2023-02-03T20:32:45.088Z,5.77
2023-02-03T20:35:16.600Z,5.78
2023-02-03T20:37:48.440Z,5.77
2023-02-03T20:40:22.208Z,5.69
2023-02-03T20:42:53.981Z,5.67
2023-02-03T20:45:25.652Z,5.70
2023-02-03T20:47:57.220Z,5.58
2023-02-03T20:50:40.432Z,5.70
2023-02-03T20:53:13.899Z,5.64
2023-02-03T20:55:45.468Z,5.58
2023-02-03T20:58:17.389Z,5.56
2023-02-03T21:00:49.949Z,5.51
2023-02-03T21:03:40.446Z,5.49
2023-02-03T21:06:11.967Z,5.49
2023-02-03T21:08:43.710Z,5.48
2023-02-03T21:11:15.561Z,5.44
2023-02-03T21:13:47.142Z,5.46
2023-02-03T21:16:19.156Z,5.43
2023-02-03T21:18:50.876Z,5.43
2023-02-03T21:21:25.180Z,5.45
2023-02-03T21:23:56.714Z,5.45
2023-02-03T21:26:28.663Z,5.39
2023-02-03T21:29:00.206Z,5.34
2023-02-03T21:31:32.100Z,5.25
2023-02-03T21:34:03.704Z,4.99
2023-02-03T21:36:38.171Z,4.66
2023-02-03T21:39:09.675Z,4.41
2023-02-03T21:41:41.205Z,4.26
2023-02-03T21:44:12.715Z,4.15
2023-02-03T21:46:44.256Z,3.98
2023-02-03T21:49:17.241Z,3.94
2023-02-03T21:51:49.627Z,3.82
2023-02-03T21:54:21.312Z,3.72
2023-02-03T21:56:54.057Z,3.64
2023-02-03T21:59:28.403Z,3.61
2023-02-03T22:02:00.024Z,3.54
2023-02-03T22:04:31.593Z,3.50
2023-02-03T22:07:03.441Z,3.46
2023-02-03T22:09:34.960Z,3.54
2023-02-03T22:12:07.127Z,3.41
2023-02-03T22:14:38.676Z,3.44
2023-02-03T22:17:14.332Z,3.47
2023-02-03T22:19:45.880Z,3.38
2023-02-03T22:22:17.857Z,3.34
2023-02-03T22:24:49.354Z,3.32
2023-02-03T22:27:21.827Z,3.26
2023-02-03T22:29:56.340Z,3.18
2023-02-03T22:32:28.001Z,3.16
2023-02-03T22:34:59.481Z,3.17
2023-02-03T22:37:33.416Z,3.21
2023-02-03T22:40:04.949Z,3.21
2023-02-03T22:42:36.453Z,3.24
2023-02-03T22:45:07.963Z,3.20
2023-02-03T22:47:39.474Z,3.20
2023-02-03T22:50:10.963Z,3.11
2023-02-03T22:52:42.747Z,3.01
2023-02-03T22:55:14.210Z,2.96
2023-02-03T22:57:46.053Z,2.98
2023-02-03T23:00:17.568Z,2.97
2023-02-03T23:02:49.472Z,3.01
2023-02-03T23:05:20.951Z,3.03
2023-02-03T23:07:52.610Z,3.04
2023-02-03T23:10:24.253Z,3.03
2023-02-03T23:12:56.030Z,3.01
2023-02-03T23:15:27.588Z,3.03
2023-02-03T23:17:59.620Z,3.11
2023-02-03T23:20:31.541Z,3.09
2023-02-03T23:23:03.341Z,3.07
2023-02-03T23:25:34.835Z,3.03
2023-02-03T23:28:06.715Z,3.01
2023-02-03T23:30:38.308Z,3.00
2023-02-03T23:33:10.160Z,2.94
2023-02-03T23:35:49.009Z,2.92
2023-02-03T23:38:20.765Z,2.84
2023-02-03T23:40:54.130Z,2.73
2023-02-03T23:43:25.893Z,2.77
2023-02-03T23:45:57.375Z,2.83
2023-02-03T23:48:29.082Z,2.81
2023-02-03T23:51:00.566Z,2.89
2023-02-03T23:53:32.391Z,2.93
2023-02-03T23:56:03.881Z,2.89
2023-02-03T23:58:35.812Z,2.92
